createdAt,value
2019-05-30T00:00:47.007Z,9.88
2019-05-30T00:03:16.247Z,9.80
2019-05-30T00:05:45.342Z,9.86
2019-05-30T00:08:14.432Z,9.78
2019-05-30T00:10:43.533Z,9.84
2019-05-30T00:13:12.763Z,9.86
2019-05-30T00:15:41.890Z,9.88
2019-05-30T00:18:10.987Z,9.91
2019-05-30T00:20:40.110Z,9.33
2019-05-30T00:23:09.356Z,9.31
2019-05-30T00:25:38.466Z,9.46
2019-05-30T00:28:07.640Z,9.50
2019-05-30T00:30:37.012Z,9.48
2019-05-30T00:33:07.055Z,9.34
2019-05-30T00:35:36.289Z,9.33
2019-05-30T00:38:06.128Z,9.40
2019-05-30T00:40:35.296Z,9.40
2019-05-30T00:43:04.436Z,9.32
2019-05-30T00:45:33.605Z,9.38
2019-05-30T00:48:04.018Z,9.41
2019-05-30T00:50:33.502Z,9.38
2019-05-30T00:53:02.934Z,9.29
2019-05-30T00:55:32.188Z,9.27
2019-05-30T00:58:02.654Z,9.24
2019-05-30T01:00:43.007Z,9.20
2019-05-30T01:03:04.803Z,9.17
2019-05-30T01:05:33.589Z,9.13
2019-05-30T01:08:03.306Z,9.07
2019-05-30T01:10:32.520Z,9.02
2019-05-30T01:13:03.017Z,9.03
2019-05-30T01:15:32.488Z,8.99
2019-05-30T01:18:01.623Z,8.91
2019-05-30T01:20:31.551Z,8.82
2019-05-30T01:23:01.307Z,8.91
2019-05-30T01:25:30.520Z,8.92
2019-05-30T01:28:01.614Z,8.95
2019-05-30T01:30:30.741Z,8.73
2019-05-30T01:32:59.866Z,8.60
2019-05-30T01:35:29.029Z,8.66
2019-05-30T01:37:59.575Z,8.74
2019-05-30T01:40:37.843Z,8.83
2019-05-30T01:43:08.275Z,8.90
2019-05-30T01:45:39.217Z,8.77
2019-05-30T01:48:08.670Z,8.61
2019-05-30T01:50:37.850Z,8.60
2019-05-30T01:53:07.094Z,8.72
2019-05-30T01:55:36.261Z,8.68
2019-05-30T01:58:05.360Z,8.60
2019-05-30T02:00:38.997Z,8.59
2019-05-30T02:03:09.577Z,8.54
2019-05-30T02:05:38.846Z,8.50
2019-05-30T02:08:09.880Z,8.56
2019-05-30T02:10:38.991Z,8.55
2019-05-30T02:13:11.159Z,8.49
2019-05-30T02:15:40.337Z,8.57
2019-05-30T02:18:09.985Z,8.46
2019-05-30T02:20:39.334Z,8.39
2019-05-30T02:23:09.941Z,8.37
2019-05-30T02:25:39.501Z,8.36
2019-05-30T02:28:08.636Z,8.35
2019-05-30T02:30:37.867Z,8.31
2019-05-30T02:33:07.925Z,8.28
2019-05-30T02:35:37.853Z,8.26
2019-05-30T02:38:07.524Z,8.28
2019-05-30T02:40:37.865Z,8.23
2019-05-30T02:43:07.568Z,8.17
2019-05-30T02:45:37.370Z,8.23
2019-05-30T02:48:07.389Z,8.10
2019-05-30T02:50:36.615Z,8.09
2019-05-30T02:53:06.445Z,8.10
2019-05-30T02:55:36.604Z,8.09
2019-05-30T02:58:06.616Z,8.11
2019-05-30T03:00:37.171Z,8.11
2019-05-30T03:03:09.805Z,8.07
2019-05-30T03:05:38.314Z,8.08
2019-05-30T03:08:10.926Z,8.12
2019-05-30T03:10:38.396Z,8.01
2019-05-30T03:13:10.608Z,7.67
2019-05-30T03:15:39.435Z,7.72
2019-05-30T03:18:10.340Z,7.88
2019-05-30T03:20:39.484Z,8.02
2019-05-30T03:23:10.484Z,8.04
2019-05-30T03:25:40.559Z,8.07
2019-05-30T03:28:11.936Z,8.02
2019-05-30T03:30:40.621Z,7.98
2019-05-30T03:33:32.958Z,7.98
2019-05-30T03:35:43.936Z,8.02
2019-05-30T03:38:15.397Z,8.08
2019-05-30T03:40:43.681Z,8.09
2019-05-30T03:43:15.985Z,8.11
2019-05-30T03:45:45.080Z,8.10
2019-05-30T03:48:16.113Z,8.15
2019-05-30T03:50:49.168Z,8.19
2019-05-30T03:53:18.312Z,8.35
2019-05-30T03:55:50.105Z,8.41
2019-05-30T03:58:27.564Z,8.50
2019-05-30T04:00:57.132Z,8.60
2019-05-30T04:04:06.637Z,8.75
2019-05-30T04:06:37.956Z,8.98
2019-05-30T04:09:09.922Z,9.16
2019-05-30T04:11:45.847Z,9.26
2019-05-30T04:14:19.187Z,9.44
2019-05-30T04:16:48.494Z,9.52
2019-05-30T04:19:19.750Z,9.80
2019-05-30T04:21:49.696Z,9.90
2019-05-30T04:24:19.753Z,10.06
2019-05-30T04:26:49.164Z,10.28
2019-05-30T04:29:18.996Z,10.42
2019-05-30T04:31:48.227Z,10.51
2019-05-30T04:34:19.402Z,10.59
2019-05-30T04:36:52.948Z,10.74
2019-05-30T04:39:19.307Z,10.91
2019-05-30T04:41:49.808Z,11.08
2019-05-30T04:44:20.375Z,10.94
2019-05-30T04:46:49.759Z,11.02
2019-05-30T04:49:21.106Z,11.01
2019-05-30T04:51:51.433Z,10.99
2019-05-30T04:54:21.483Z,11.31
2019-05-30T04:56:50.783Z,11.41
2019-05-30T04:59:21.670Z,11.55
2019-05-30T05:01:52.165Z,11.91
2019-05-30T05:04:21.755Z,11.72
2019-05-30T05:06:51.129Z,11.79
2019-05-30T05:09:20.418Z,11.80
2019-05-30T05:11:49.945Z,12.15
2019-05-30T05:14:20.441Z,11.89
2019-05-30T05:16:49.685Z,12.38
2019-05-30T05:19:19.577Z,12.52
2019-05-30T05:21:48.894Z,12.61
2019-05-30T05:24:19.350Z,12.68
2019-05-30T05:26:48.553Z,12.47
2019-05-30T05:29:18.002Z,12.87
2019-05-30T05:31:47.166Z,12.90
2019-05-30T05:34:16.631Z,12.76
2019-05-30T05:36:45.844Z,13.18
2019-05-30T05:39:16.146Z,13.18
2019-05-30T05:41:45.245Z,13.53
2019-05-30T05:44:14.485Z,13.58
2019-05-30T05:46:43.590Z,13.59
2019-05-30T05:49:12.756Z,13.49
2019-05-30T05:51:41.860Z,13.53
2019-05-30T05:54:10.948Z,13.76
2019-05-30T05:56:40.107Z,13.58
2019-05-30T05:59:09.342Z,13.65
2019-05-30T06:01:38.457Z,13.80
2019-05-30T06:04:13.324Z,13.99
2019-05-30T06:06:38.314Z,13.91
2019-05-30T06:09:07.600Z,13.78
2019-05-30T06:11:36.703Z,13.96
2019-05-30T06:14:05.832Z,14.28
2019-05-30T06:16:34.939Z,14.43
2019-05-30T06:19:04.131Z,14.76
2019-05-30T06:21:33.189Z,14.54
2019-05-30T06:24:02.362Z,14.97
2019-05-30T06:26:31.522Z,14.30
2019-05-30T06:29:00.726Z,14.18
2019-05-30T06:31:29.815Z,14.64
2019-05-30T06:33:58.924Z,14.69
2019-05-30T06:36:29.242Z,13.86
2019-05-30T06:38:58.523Z,14.38
2019-05-30T06:41:27.789Z,15.18
2019-05-30T06:43:56.907Z,15.13
2019-05-30T06:46:26.232Z,14.88
2019-05-30T06:48:55.409Z,14.62
2019-05-30T06:51:24.845Z,15.23
2019-05-30T06:53:53.994Z,15.21
2019-05-30T06:56:23.308Z,15.01
2019-05-30T06:58:52.371Z,14.83
2019-05-30T07:01:22.052Z,15.11
2019-05-30T07:03:51.462Z,15.05
2019-05-30T07:06:21.178Z,15.06
2019-05-30T07:08:51.610Z,15.22
2019-05-30T07:11:20.755Z,15.98
2019-05-30T07:13:49.879Z,15.76
2019-05-30T07:16:20.186Z,16.18
2019-05-30T07:18:49.297Z,16.38
2019-05-30T07:21:18.446Z,15.99
2019-05-30T07:23:47.546Z,16.13
2019-05-30T07:26:16.654Z,16.23
2019-05-30T07:28:45.769Z,16.21
2019-05-30T07:31:14.905Z,16.68
2019-05-30T07:33:44.211Z,16.54
2019-05-30T07:36:13.423Z,17.08
2019-05-30T07:38:42.467Z,17.10
2019-05-30T07:41:11.680Z,16.52
2019-05-30T07:43:40.808Z,16.44
2019-05-30T07:46:10.038Z,16.91
2019-05-30T07:48:39.174Z,17.29
2019-05-30T07:51:08.329Z,17.91
2019-05-30T07:53:37.493Z,17.41
2019-05-30T07:56:06.960Z,16.57
2019-05-30T07:58:36.039Z,17.39
2019-05-30T08:01:05.334Z,17.92
2019-05-30T08:03:34.792Z,17.93
2019-05-30T08:06:04.087Z,18.06
2019-05-30T08:08:33.914Z,17.79
2019-05-30T08:11:09.654Z,17.79
2019-05-30T08:13:35.220Z,18.19
2019-05-30T08:16:05.652Z,19.02
2019-05-30T08:18:35.852Z,19.46
2019-05-30T08:21:05.236Z,20.01
2019-05-30T08:23:34.872Z,20.58
2019-05-30T08:26:04.259Z,19.31
2019-05-30T08:28:34.296Z,20.12
2019-05-30T08:31:03.495Z,20.33
2019-05-30T08:33:33.586Z,19.68
2019-05-30T08:36:05.472Z,20.49
2019-05-30T08:38:33.775Z,20.33
2019-05-30T08:41:02.933Z,20.35
2019-05-30T08:43:32.042Z,19.98
2019-05-30T08:46:02.216Z,21.19
2019-05-30T08:48:32.790Z,21.35
2019-05-30T08:51:02.328Z,21.87
2019-05-30T08:53:32.624Z,22.10
2019-05-30T08:56:01.862Z,21.46
2019-05-30T08:58:30.981Z,20.68
2019-05-30T09:01:00.315Z,22.08
2019-05-30T09:03:29.461Z,21.90
2019-05-30T09:06:03.719Z,21.24
2019-05-30T09:08:29.465Z,20.91
2019-05-30T09:10:58.642Z,21.15
2019-05-30T09:13:27.811Z,19.78
2019-05-30T09:15:56.932Z,20.61
2019-05-30T09:18:26.111Z,21.46
2019-05-30T09:20:55.268Z,22.39
2019-05-30T09:23:24.424Z,21.34
2019-05-30T09:25:53.536Z,21.10
2019-05-30T09:28:22.678Z,20.62
2019-05-30T09:30:51.852Z,20.85
2019-05-30T09:33:21.011Z,23.66
2019-05-30T09:35:50.182Z,21.89
2019-05-30T09:38:19.321Z,23.83
2019-05-30T09:40:49.547Z,23.83
2019-05-30T09:43:18.719Z,23.20
2019-05-30T09:45:48.094Z,22.05
2019-05-30T09:48:17.142Z,23.47
2019-05-30T09:50:46.845Z,23.39
2019-05-30T09:53:15.999Z,23.37
2019-05-30T09:55:46.208Z,22.52
2019-05-30T09:58:15.455Z,22.17
2019-05-30T10:00:45.442Z,21.96
2019-05-30T10:03:15.451Z,21.38
2019-05-30T10:05:45.119Z,21.02
2019-05-30T10:08:14.811Z,21.38
2019-05-30T10:10:45.637Z,22.59
2019-05-30T10:13:14.946Z,22.89
2019-05-30T10:15:45.344Z,23.26
2019-05-30T10:18:14.811Z,24.04
2019-05-30T10:20:44.655Z,24.04
2019-05-30T10:23:14.934Z,23.96
2019-05-30T10:25:44.943Z,24.02
2019-05-30T10:28:14.981Z,24.74
2019-05-30T10:30:45.368Z,25.17
2019-05-30T10:33:15.027Z,24.27
2019-05-30T10:35:45.647Z,23.48
2019-05-30T10:38:15.180Z,24.11
2019-05-30T10:40:44.277Z,23.26
2019-05-30T10:43:13.467Z,23.10
2019-05-30T10:45:42.716Z,22.98
2019-05-30T10:48:11.850Z,22.74
2019-05-30T10:50:41.018Z,22.62
2019-05-30T10:53:10.203Z,22.62
2019-05-30T10:55:39.416Z,22.56
2019-05-30T10:58:08.543Z,22.56
2019-05-30T11:00:53.708Z,21.75
2019-05-30T11:03:26.649Z,21.45
2019-05-30T11:06:23.901Z,22.32
2019-05-30T11:08:53.297Z,21.80
2019-05-30T11:11:22.417Z,21.31
2019-05-30T11:13:53.293Z,21.49
2019-05-30T11:16:23.808Z,21.37
2019-05-30T11:18:54.403Z,21.40
2019-05-30T11:21:23.796Z,21.69
2019-05-30T11:23:54.314Z,21.86
2019-05-30T11:26:24.031Z,22.67
2019-05-30T11:28:53.207Z,21.91
2019-05-30T11:31:22.238Z,22.58
2019-05-30T11:33:51.384Z,23.17
2019-05-30T11:36:20.449Z,23.64
2019-05-30T11:38:49.508Z,22.63
2019-05-30T11:41:18.596Z,22.67
2019-05-30T11:43:47.751Z,22.67
2019-05-30T11:46:18.816Z,22.68
2019-05-30T11:48:47.870Z,21.33
2019-05-30T11:51:16.945Z,21.18
2019-05-30T11:53:46.029Z,20.69
2019-05-30T11:56:15.151Z,20.83
2019-05-30T11:58:44.232Z,21.13
2019-05-30T12:01:13.342Z,20.59
2019-05-30T12:03:42.399Z,21.25
2019-05-30T12:06:11.498Z,21.55
2019-05-30T12:08:40.586Z,21.22
2019-05-30T12:11:09.673Z,21.02
2019-05-30T12:13:38.779Z,21.40
2019-05-30T12:16:07.908Z,20.55
2019-05-30T12:18:37.032Z,21.07
2019-05-30T12:21:06.985Z,21.22
2019-05-30T12:23:36.042Z,20.81
2019-05-30T12:26:05.201Z,20.85
2019-05-30T12:28:34.333Z,22.12
2019-05-30T12:31:06.481Z,21.61
2019-05-30T12:33:34.161Z,22.97
2019-05-30T12:36:03.228Z,22.11
2019-05-30T12:38:32.609Z,22.18
2019-05-30T12:41:02.911Z,22.23
2019-05-30T12:43:32.048Z,22.03
2019-05-30T12:46:01.299Z,22.29
2019-05-30T12:48:30.398Z,22.22
2019-05-30T12:50:59.470Z,21.91
2019-05-30T12:53:28.528Z,23.45
2019-05-30T12:55:58.496Z,22.83
2019-05-30T12:58:27.595Z,23.98
2019-05-30T13:00:56.714Z,23.38
2019-05-30T13:03:25.797Z,23.10
2019-05-30T13:05:55.146Z,23.83
2019-05-30T13:08:24.217Z,22.41
2019-05-30T13:10:53.274Z,22.15
2019-05-30T13:13:22.299Z,21.96
2019-05-30T13:15:51.445Z,22.06
2019-05-30T13:18:20.533Z,21.73
2019-05-30T13:23:17.529Z,22.56
2019-05-30T13:25:46.604Z,22.56
2019-05-30T13:28:15.646Z,22.33
2019-05-30T13:30:44.748Z,22.67
2019-05-30T13:33:13.781Z,22.57
2019-05-30T13:35:42.859Z,22.90
2019-05-30T13:38:25.676Z,22.95
2019-05-30T13:40:42.684Z,23.72
2019-05-30T13:43:11.992Z,23.50
2019-05-30T13:45:41.136Z,23.31
2019-05-30T13:48:10.699Z,24.30
2019-05-30T13:50:39.795Z,23.02
2019-05-30T13:53:09.349Z,22.38
2019-05-30T13:55:38.551Z,21.87
2019-05-30T13:58:07.850Z,21.78
2019-05-30T14:00:36.941Z,21.26
2019-05-30T14:03:06.531Z,22.00
2019-05-30T14:05:35.650Z,22.17
2019-05-30T14:08:06.470Z,22.24
2019-05-30T14:10:35.541Z,22.18
2019-05-30T14:13:04.616Z,22.54
2019-05-30T14:15:33.708Z,22.99
2019-05-30T14:18:07.145Z,22.93
2019-05-30T14:20:36.408Z,22.22
2019-05-30T14:23:05.549Z,22.17
2019-05-30T14:25:35.995Z,21.58
2019-05-30T14:28:05.660Z,21.82
2019-05-30T14:30:34.845Z,21.63
2019-05-30T14:33:04.179Z,21.33
2019-05-30T14:35:33.292Z,21.32
2019-05-30T14:38:02.546Z,21.36
2019-05-30T14:40:31.610Z,21.18
2019-05-30T14:43:00.687Z,21.06
2019-05-30T14:45:29.832Z,21.06
2019-05-30T14:47:59.204Z,21.15
2019-05-30T14:50:28.333Z,21.30
2019-05-30T14:52:57.441Z,21.28
2019-05-30T14:55:26.491Z,20.98
2019-05-30T14:57:58.110Z,20.87
2019-05-30T15:00:26.381Z,20.56
2019-05-30T15:02:55.886Z,20.44
2019-05-30T15:05:25.007Z,20.97
2019-05-30T15:07:54.235Z,20.73
2019-05-30T15:10:23.331Z,21.34
2019-05-30T15:12:52.659Z,21.64
2019-05-30T15:15:21.723Z,21.50
2019-05-30T15:17:51.120Z,21.34
2019-05-30T15:20:20.275Z,21.12
2019-05-30T15:22:49.822Z,20.92
2019-05-30T15:25:19.033Z,21.06
2019-05-30T15:27:48.260Z,21.18
2019-05-30T15:30:17.336Z,21.02
2019-05-30T15:32:46.517Z,20.88
2019-05-30T15:35:16.110Z,20.99
2019-05-30T15:37:46.372Z,21.34
2019-05-30T15:40:15.434Z,21.21
2019-05-30T15:42:44.544Z,21.23
2019-05-30T15:45:14.001Z,21.44
2019-05-30T15:47:43.190Z,20.98
2019-05-30T15:50:14.153Z,21.39
2019-05-30T15:52:43.624Z,21.32
2019-05-30T15:55:13.619Z,21.06
2019-05-30T15:57:42.683Z,21.12
2019-05-30T16:00:12.233Z,21.23
2019-05-30T16:02:41.515Z,20.73
2019-05-30T16:05:10.692Z,20.89
2019-05-30T16:07:39.745Z,21.04
2019-05-30T16:10:21.055Z,21.10
2019-05-30T16:13:02.006Z,20.87
2019-05-30T16:15:31.542Z,21.05
2019-05-30T16:18:00.708Z,20.89
2019-05-30T16:20:29.775Z,20.98
2019-05-30T16:22:58.895Z,20.45
2019-05-30T16:25:27.924Z,20.44
2019-05-30T16:27:57.065Z,20.78
2019-05-30T16:30:27.122Z,21.10
2019-05-30T16:32:56.247Z,20.78
2019-05-30T16:35:26.499Z,20.62
2019-05-30T16:37:55.670Z,20.44
2019-05-30T16:40:24.671Z,20.68
2019-05-30T16:42:53.720Z,20.48
2019-05-30T16:45:25.179Z,20.54
2019-05-30T16:47:53.564Z,20.32
2019-05-30T16:50:24.581Z,20.36
2019-05-30T16:52:53.731Z,20.70
2019-05-30T16:55:23.561Z,20.73
2019-05-30T16:57:52.683Z,20.24
2019-05-30T17:00:21.923Z,20.25
2019-05-30T17:02:51.022Z,20.29
2019-05-30T17:05:20.192Z,20.38
2019-05-30T17:07:49.318Z,20.29
2019-05-30T17:10:27.513Z,20.31
2019-05-30T17:12:49.289Z,20.42
2019-05-30T17:15:19.894Z,20.53
2019-05-30T17:17:49.028Z,20.86
2019-05-30T17:20:18.466Z,20.59
2019-05-30T17:22:47.617Z,20.42
2019-05-30T17:25:17.091Z,20.34
2019-05-30T17:27:46.183Z,20.38
2019-05-30T17:30:15.363Z,20.18
2019-05-30T17:32:44.410Z,20.06
2019-05-30T17:35:13.495Z,20.12
2019-05-30T17:37:42.496Z,20.03
2019-05-30T17:40:11.596Z,19.87
2019-05-30T17:42:40.747Z,19.93
2019-05-30T17:45:10.110Z,19.74
2019-05-30T17:47:39.349Z,19.88
2019-05-30T17:50:08.461Z,19.77
2019-05-30T17:52:37.487Z,19.73
2019-05-30T17:55:06.712Z,19.80
2019-05-30T17:57:35.841Z,19.96
2019-05-30T18:00:05.172Z,19.73
2019-05-30T18:02:34.246Z,19.70
2019-05-30T18:05:03.330Z,19.59
2019-05-30T18:07:32.407Z,19.79
2019-05-30T18:10:01.507Z,19.73
2019-05-30T18:12:31.218Z,19.87
2019-05-30T18:15:00.403Z,19.71
2019-05-30T18:17:29.438Z,19.53
2019-05-30T18:19:58.526Z,19.54
2019-05-30T18:22:27.692Z,19.38
2019-05-30T18:24:56.789Z,19.31
2019-05-30T18:27:25.934Z,19.43
2019-05-30T18:29:55.017Z,19.39
2019-05-30T18:32:24.189Z,19.38
2019-05-30T18:34:57.245Z,19.31
2019-05-30T18:37:24.534Z,19.25
2019-05-30T18:39:53.691Z,19.27
2019-05-30T18:42:23.173Z,19.19
2019-05-30T18:44:52.303Z,19.10
2019-05-30T18:47:22.878Z,19.07
2019-05-30T18:49:52.006Z,19.00
2019-05-30T18:52:21.317Z,19.07
2019-05-30T18:54:50.452Z,18.96
2019-05-30T18:57:19.573Z,18.93
2019-05-30T18:59:48.611Z,18.89
2019-05-30T19:02:18.629Z,18.79
2019-05-30T19:04:47.668Z,18.77
2019-05-30T19:07:16.730Z,18.76
2019-05-30T19:09:46.399Z,18.66
2019-05-30T19:12:15.501Z,18.62
2019-05-30T19:14:44.570Z,18.44
2019-05-30T19:17:13.735Z,18.51
2019-05-30T19:19:42.871Z,18.47
2019-05-30T19:22:14.261Z,18.34
2019-05-30T19:24:44.061Z,18.36
2019-05-30T19:27:13.156Z,18.27
2019-05-30T19:29:42.261Z,18.16
2019-05-30T19:32:11.345Z,18.04
2019-05-30T19:34:40.466Z,18.07
2019-05-30T19:37:09.516Z,17.94
2019-05-30T19:39:38.532Z,17.85
2019-05-30T19:42:07.602Z,17.75
2019-05-30T19:44:41.080Z,17.79
2019-05-30T19:47:07.519Z,17.87
2019-05-30T19:49:36.981Z,17.80
2019-05-30T19:52:06.137Z,17.87
2019-05-30T19:54:35.227Z,17.71
2019-05-30T19:57:04.232Z,17.61
2019-05-30T19:59:33.799Z,17.54
2019-05-30T20:02:02.886Z,17.60
2019-05-30T20:04:32.216Z,17.65
2019-05-30T20:07:01.345Z,17.66
2019-05-30T20:09:30.495Z,17.61
2019-05-30T20:12:03.733Z,17.60
2019-05-30T20:14:30.961Z,17.51
2019-05-30T20:17:00.007Z,17.48
2019-05-30T20:19:29.062Z,17.46
2019-05-30T20:21:58.145Z,17.52
2019-05-30T20:24:27.203Z,17.44
2019-05-30T20:26:56.267Z,17.44
2019-05-30T20:29:25.410Z,17.11
2019-05-30T20:31:54.516Z,17.25
2019-05-30T20:34:23.531Z,17.05
2019-05-30T20:36:52.580Z,17.01
2019-05-30T20:39:21.666Z,17.08
2019-05-30T20:41:53.890Z,17.15
2019-05-30T20:44:21.555Z,17.14
2019-05-30T20:46:50.909Z,17.11
2019-05-30T20:49:19.942Z,17.13
2019-05-30T20:51:49.065Z,17.12
2019-05-30T20:54:18.090Z,17.11
2019-05-30T20:56:49.722Z,17.06
2019-05-30T20:59:18.028Z,17.05
2019-05-30T21:01:47.154Z,17.08
2019-05-30T21:04:16.241Z,16.97
2019-05-30T21:06:45.439Z,17.01
2019-05-30T21:09:28.326Z,17.09
2019-05-30T21:11:46.537Z,17.17
2019-05-30T21:14:15.796Z,17.05
2019-05-30T21:16:45.934Z,16.94
2019-05-30T21:19:16.168Z,16.95
2019-05-30T21:21:46.171Z,16.97
2019-05-30T21:24:15.428Z,16.83
2019-05-30T21:26:44.855Z,16.68
2019-05-30T21:29:13.989Z,16.79
2019-05-30T21:31:43.506Z,16.64
2019-05-30T21:34:13.014Z,16.56
2019-05-30T21:36:42.188Z,16.52
2019-05-30T21:39:11.318Z,16.62
2019-05-30T21:41:40.415Z,16.69
2019-05-30T21:44:09.538Z,16.77
2019-05-30T21:46:38.708Z,16.52
2019-05-30T21:49:07.806Z,16.52
2019-05-30T21:51:36.868Z,16.67
2019-05-30T21:54:06.008Z,16.76
2019-05-30T21:56:35.087Z,16.75
2019-05-30T21:59:04.358Z,16.76
2019-05-30T22:01:34.314Z,16.81
2019-05-30T22:04:03.746Z,16.80
2019-05-30T22:06:32.863Z,16.79
2019-05-30T22:09:03.521Z,16.80
2019-05-30T22:11:33.420Z,16.75
2019-05-30T22:14:02.501Z,16.75
2019-05-30T22:16:31.551Z,16.69
2019-05-30T22:19:00.722Z,16.65
2019-05-30T22:21:29.812Z,16.61
2019-05-30T22:23:58.863Z,16.50
2019-05-30T22:26:27.907Z,16.37
2019-05-30T22:28:57.064Z,16.34
2019-05-30T22:31:26.213Z,16.34
2019-05-30T22:33:55.455Z,16.42
2019-05-30T22:36:24.550Z,16.35
2019-05-30T22:38:53.785Z,16.27
2019-05-30T22:41:22.895Z,16.21
2019-05-30T22:43:52.943Z,16.29
2019-05-30T22:46:22.184Z,16.12
2019-05-30T22:48:51.231Z,16.13
2019-05-30T22:51:20.603Z,16.04
2019-05-30T22:53:50.947Z,16.04
2019-05-30T22:56:20.191Z,16.11
2019-05-30T22:58:50.173Z,16.15
2019-05-30T23:01:19.356Z,16.16
2019-05-30T23:03:49.150Z,16.17
2019-05-30T23:06:18.363Z,16.11
2019-05-30T23:08:48.497Z,16.12
2019-05-30T23:11:17.612Z,16.03
2019-05-30T23:13:47.846Z,16.14
2019-05-30T23:16:16.971Z,16.10
2019-05-30T23:18:46.421Z,16.14
2019-05-30T23:21:15.482Z,16.12
2019-05-30T23:23:44.561Z,15.99
2019-05-30T23:26:13.647Z,15.84
2019-05-30T23:28:42.694Z,15.89
2019-05-30T23:31:11.812Z,15.82
2019-05-30T23:33:40.811Z,15.87
2019-05-30T23:36:09.855Z,15.88
2019-05-30T23:38:38.883Z,15.80
2019-05-30T23:41:07.974Z,15.59
2019-05-30T23:43:37.009Z,15.61
2019-05-30T23:46:06.171Z,15.61
2019-05-30T23:48:35.219Z,15.56
2019-05-30T23:51:04.378Z,15.55
2019-05-30T23:53:33.410Z,15.57
2019-05-30T23:56:02.439Z,15.57
2019-05-30T23:58:31.511Z,15.60
